createdAt,value
2023-05-14T00:01:17.835Z,65.48
2023-05-14T00:03:48.368Z,65.57
2023-05-14T00:06:18.675Z,65.51
2023-05-14T00:08:49.172Z,65.46
2023-05-14T00:11:19.476Z,65.01
2023-05-14T00:13:50.006Z,65.21
2023-05-14T00:16:20.455Z,65.39
2023-05-14T00:18:51.135Z,65.34
2023-05-14T00:21:22.159Z,64.93
2023-05-14T00:23:52.557Z,64.50
2023-05-14T00:26:23.845Z,64.63
2023-05-14T00:28:54.158Z,64.43
2023-05-14T00:31:24.810Z,64.17
2023-05-14T00:33:54.897Z,62.84
2023-05-14T00:36:25.595Z,62.72
2023-05-14T00:38:56.185Z,61.99
2023-05-14T00:41:26.724Z,61.40
2023-05-14T00:43:57.311Z,61.40
2023-05-14T00:46:28.047Z,60.95
2023-05-14T00:48:58.770Z,61.21
2023-05-14T00:51:29.432Z,60.46
2023-05-14T00:53:59.945Z,60.31
2023-05-14T00:56:31.528Z,59.68
2023-05-14T00:59:02.467Z,59.46
2023-05-14T01:01:33.631Z,59.83
2023-05-14T01:04:04.667Z,59.87
2023-05-14T01:06:41.101Z,59.63
2023-05-14T01:09:25.949Z,59.71
2023-05-14T01:12:11.742Z,58.97
2023-05-14T01:15:05.703Z,58.71
2023-05-14T01:17:38.751Z,58.54
2023-05-14T01:20:10.266Z,58.88
2023-05-14T01:22:41.257Z,59.28
2023-05-14T01:25:12.069Z,59.61
2023-05-14T01:28:05.428Z,58.46
2023-05-14T01:31:10.712Z,58.42
2023-05-14T01:33:45.522Z,58.08
2023-05-14T01:36:16.103Z,58.76
2023-05-14T01:38:48.225Z,58.56
2023-05-14T01:41:20.023Z,59.19
2023-05-14T01:43:50.844Z,58.39
2023-05-14T01:46:22.462Z,58.47
2023-05-14T01:48:53.072Z,57.70
2023-05-14T01:51:23.346Z,57.26
2023-05-14T01:53:53.745Z,56.79
2023-05-14T01:56:26.188Z,57.14
2023-05-14T01:58:58.074Z,57.13
2023-05-14T02:01:28.747Z,56.98
2023-05-14T02:03:59.565Z,57.02
2023-05-14T02:06:30.138Z,56.80
2023-05-14T02:09:00.635Z,57.44
2023-05-14T02:11:30.923Z,57.33
2023-05-14T02:14:01.106Z,56.75
2023-05-14T02:16:31.464Z,56.54
2023-05-14T02:19:01.964Z,56.73
2023-05-14T02:21:34.449Z,56.92
2023-05-14T02:24:04.743Z,57.05
2023-05-14T02:26:35.155Z,56.91
2023-05-14T02:29:05.462Z,56.51
2023-05-14T02:31:35.947Z,56.41
2023-05-14T02:34:11.201Z,56.45
2023-05-14T02:36:41.484Z,56.39
2023-05-14T02:39:12.475Z,56.30
2023-05-14T02:41:42.905Z,55.93
2023-05-14T02:44:13.325Z,56.03
2023-05-14T02:46:43.907Z,56.22
2023-05-14T02:49:14.514Z,53.91
2023-05-14T02:51:46.408Z,54.24
2023-05-14T02:54:18.853Z,55.01
2023-05-14T02:56:51.291Z,54.19
2023-05-14T02:59:21.757Z,54.67
2023-05-14T03:01:53.020Z,54.24
2023-05-14T03:04:23.518Z,54.65
2023-05-14T03:06:53.688Z,54.97
2023-05-14T03:09:23.883Z,55.26
2023-05-14T03:12:13.578Z,55.74
2023-05-14T03:14:44.007Z,55.67
2023-05-14T03:17:14.726Z,56.08
2023-05-14T03:19:44.968Z,56.01
2023-05-14T03:22:15.602Z,55.89
2023-05-14T03:24:45.951Z,56.27
2023-05-14T03:27:16.424Z,56.31
2023-05-14T03:29:46.800Z,56.08
2023-05-14T03:32:17.638Z,56.10
2023-05-14T03:34:49.781Z,56.75
2023-05-14T03:37:20.870Z,56.55
2023-05-14T03:39:50.936Z,55.98
2023-05-14T03:42:21.172Z,56.11
2023-05-14T03:44:51.512Z,56.91
2023-05-14T03:47:21.997Z,56.48
2023-05-14T03:49:53.047Z,56.30
2023-05-14T03:52:23.423Z,56.42
2023-05-14T03:54:54.368Z,56.83
2023-05-14T03:57:24.712Z,56.54
2023-05-14T03:59:55.079Z,56.86
2023-05-14T04:02:25.920Z,56.82
2023-05-14T04:04:58.601Z,56.64
2023-05-14T04:07:29.027Z,56.82
2023-05-14T04:09:59.579Z,58.05
2023-05-14T04:12:31.512Z,57.48
2023-05-14T04:15:02.072Z,57.29
2023-05-14T04:17:33.468Z,57.17
2023-05-14T04:20:04.949Z,56.37
2023-05-14T04:22:35.273Z,56.77
2023-05-14T04:25:05.754Z,56.92
2023-05-14T04:27:36.879Z,56.70
2023-05-14T04:30:07.747Z,56.30
2023-05-14T04:32:38.949Z,56.67
2023-05-14T04:35:09.311Z,56.44
2023-05-14T04:37:40.183Z,56.31
2023-05-14T04:40:15.229Z,56.61
2023-05-14T04:42:46.307Z,55.61
2023-05-14T04:45:17.063Z,55.71
2023-05-14T04:47:47.404Z,55.40
2023-05-14T04:50:18.204Z,56.05
2023-05-14T04:52:48.578Z,56.55
2023-05-14T04:55:19.211Z,56.18
2023-05-14T04:57:49.776Z,56.25
2023-05-14T05:00:22.032Z,56.09
2023-05-14T05:02:53.155Z,55.80
2023-05-14T05:05:23.905Z,54.68
2023-05-14T05:07:54.398Z,55.16
2023-05-14T05:10:25.341Z,55.63
2023-05-14T05:12:55.778Z,55.19
2023-05-14T05:15:26.664Z,54.70
2023-05-14T05:17:57.678Z,54.18
2023-05-14T05:20:30.492Z,54.15
2023-05-14T05:23:02.303Z,53.88
2023-05-14T05:25:33.792Z,53.77
2023-05-14T05:28:04.056Z,53.62
2023-05-14T05:30:34.528Z,53.80
2023-05-14T05:33:05.031Z,53.77
2023-05-14T05:35:35.495Z,53.44
2023-05-14T05:38:05.622Z,53.34
2023-05-14T05:40:36.422Z,53.50
2023-05-14T05:43:07.315Z,53.92
2023-05-14T05:45:37.681Z,53.81
2023-05-14T05:48:08.550Z,53.94
2023-05-14T05:50:39.220Z,53.57
2023-05-14T05:53:09.425Z,53.40
2023-05-14T05:55:39.796Z,52.90
2023-05-14T05:58:09.992Z,52.67
2023-05-14T06:00:40.255Z,53.33
2023-05-14T06:03:10.564Z,53.34
2023-05-14T06:05:40.950Z,53.80
2023-05-14T06:08:12.874Z,52.98
2023-05-14T06:10:44.205Z,52.65
2023-05-14T06:13:15.575Z,52.65
2023-05-14T06:15:45.805Z,52.94
2023-05-14T06:18:16.134Z,52.39
2023-05-14T06:20:48.929Z,52.18
2023-05-14T06:23:19.206Z,51.87
2023-05-14T06:25:50.669Z,51.83
2023-05-14T06:28:21.128Z,50.67
2023-05-14T06:30:54.733Z,50.20
2023-05-14T06:33:32.084Z,51.02
2023-05-14T06:36:03.769Z,50.67
2023-05-14T06:38:34.553Z,50.63
2023-05-14T06:41:05.110Z,51.23
2023-05-14T06:43:35.633Z,51.79
2023-05-14T06:46:05.858Z,51.96
2023-05-14T06:48:36.322Z,52.54
2023-05-14T06:51:07.373Z,51.28
2023-05-14T06:53:38.434Z,51.55
2023-05-14T06:56:09.483Z,52.02
2023-05-14T06:58:40.087Z,52.13
2023-05-14T07:01:11.038Z,51.59
2023-05-14T07:03:42.003Z,51.84
2023-05-14T07:06:13.655Z,51.39
2023-05-14T07:08:45.175Z,51.49
2023-05-14T07:11:19.268Z,51.34
2023-05-14T07:13:50.268Z,51.24
2023-05-14T07:16:21.703Z,51.04
2023-05-14T07:18:52.726Z,50.59
2023-05-14T07:21:23.489Z,51.03
2023-05-14T07:23:55.839Z,51.01
2023-05-14T07:26:28.966Z,51.73
2023-05-14T07:29:00.344Z,51.75
2023-05-14T07:31:30.771Z,51.68
2023-05-14T07:34:02.133Z,51.20
2023-05-14T07:36:33.789Z,51.31
2023-05-14T07:39:04.875Z,51.06
2023-05-14T07:41:35.797Z,50.82
2023-05-14T07:44:06.871Z,50.95
2023-05-14T07:46:37.774Z,50.49
2023-05-14T07:49:09.239Z,49.33
2023-05-14T07:51:40.109Z,49.39
2023-05-14T07:54:10.805Z,49.77
2023-05-14T07:56:41.506Z,50.36
2023-05-14T07:59:12.493Z,51.15
2023-05-14T08:01:43.555Z,51.28
2023-05-14T08:04:19.099Z,51.89
2023-05-14T08:06:50.024Z,51.87
2023-05-14T08:09:20.707Z,52.22
2023-05-14T08:11:51.579Z,52.01
2023-05-14T08:14:23.282Z,52.41
2023-05-14T08:16:54.642Z,52.72
2023-05-14T08:19:27.304Z,52.71
2023-05-14T08:21:58.494Z,52.30
2023-05-14T08:24:32.104Z,52.75
2023-05-14T08:27:02.885Z,52.22
2023-05-14T08:29:33.561Z,52.02
2023-05-14T08:32:15.616Z,51.85
2023-05-14T08:34:53.591Z,51.64
2023-05-14T08:37:24.261Z,51.33
2023-05-14T08:39:55.116Z,51.50
2023-05-14T08:42:28.799Z,51.89
2023-05-14T08:45:05.537Z,51.99
2023-05-14T08:47:37.480Z,51.72
2023-05-14T08:50:13.134Z,51.43
2023-05-14T08:52:44.143Z,51.91
2023-05-14T08:55:16.288Z,51.57
2023-05-14T08:57:47.445Z,51.49
2023-05-14T09:00:19.092Z,51.21
2023-05-14T09:02:50.927Z,51.79
2023-05-14T09:05:23.145Z,51.93
2023-05-14T09:07:54.018Z,52.17
2023-05-14T09:10:25.726Z,51.77
2023-05-14T09:12:57.285Z,51.04
2023-05-14T09:15:30.992Z,51.56
2023-05-14T09:18:02.134Z,51.49
2023-05-14T09:20:33.227Z,50.02
2023-05-14T09:23:04.693Z,50.43
2023-05-14T09:25:36.322Z,50.94
2023-05-14T09:28:12.469Z,51.70
2023-05-14T09:30:43.443Z,51.60
2023-05-14T09:33:14.139Z,51.99
2023-05-14T09:35:46.220Z,52.25
2023-05-14T09:38:17.345Z,52.19
2023-05-14T09:40:48.967Z,52.55
2023-05-14T09:43:20.178Z,52.62
2023-05-14T09:45:50.703Z,52.54
2023-05-14T09:48:22.111Z,52.86
2023-05-14T09:50:54.456Z,52.96
2023-05-14T09:53:25.539Z,53.06
2023-05-14T09:55:58.400Z,52.73
2023-05-14T09:58:29.556Z,52.83
2023-05-14T10:01:00.918Z,52.83
2023-05-14T10:03:32.977Z,52.98
2023-05-14T10:06:08.542Z,53.01
2023-05-14T10:08:44.081Z,53.40
2023-05-14T10:11:23.874Z,53.50
2023-05-14T10:14:21.415Z,53.47
2023-05-14T10:16:54.542Z,53.40
2023-05-14T10:19:31.033Z,53.41
2023-05-14T10:22:08.415Z,53.47
2023-05-14T10:24:41.710Z,53.47
2023-05-14T10:27:15.323Z,53.61
2023-05-14T10:29:58.356Z,53.58
2023-05-14T10:32:31.485Z,53.93
2023-05-14T10:35:05.129Z,54.26
2023-05-14T10:37:36.578Z,54.28
2023-05-14T10:40:10.651Z,54.49
2023-05-14T10:42:43.702Z,54.30
2023-05-14T10:45:17.367Z,54.49
2023-05-14T10:47:50.277Z,54.14
2023-05-14T10:50:22.044Z,54.06
2023-05-14T10:52:54.696Z,53.95
2023-05-14T10:55:26.011Z,53.82
2023-05-14T10:57:56.474Z,53.83
2023-05-14T11:00:30.698Z,54.30
2023-05-14T11:03:03.524Z,54.89
2023-05-14T11:05:35.410Z,55.68
2023-05-14T11:08:10.690Z,56.10
2023-05-14T11:10:42.747Z,56.17
2023-05-14T11:13:14.813Z,57.36
2023-05-14T11:15:50.925Z,58.16
2023-05-14T11:18:31.745Z,59.33
2023-05-14T11:21:05.802Z,59.48
2023-05-14T11:23:36.776Z,59.83
2023-05-14T11:26:07.489Z,60.05
2023-05-14T11:28:38.497Z,58.00
2023-05-14T11:31:09.229Z,57.27
2023-05-14T11:33:40.208Z,57.56
2023-05-14T11:36:15.367Z,57.54
2023-05-14T11:38:54.277Z,58.07
2023-05-14T11:41:25.888Z,59.99
2023-05-14T11:43:57.041Z,59.58
2023-05-14T11:46:29.173Z,59.91
2023-05-14T11:49:00.187Z,59.85
2023-05-14T11:51:32.055Z,60.45
2023-05-14T11:54:02.972Z,60.68
2023-05-14T11:56:33.940Z,59.58
2023-05-14T11:59:04.788Z,59.40
2023-05-14T12:01:42.785Z,59.03
2023-05-14T12:04:13.787Z,59.39
2023-05-14T12:06:44.558Z,59.10
2023-05-14T12:09:19.161Z,59.49
2023-05-14T12:11:50.586Z,59.50
2023-05-14T12:14:26.559Z,59.76
2023-05-14T12:16:57.633Z,60.59
2023-05-14T12:19:29.294Z,62.36
2023-05-14T12:22:04.473Z,63.13
2023-05-14T12:24:36.118Z,62.71
2023-05-14T12:27:07.549Z,62.88
2023-05-14T12:29:42.208Z,63.21
2023-05-14T12:32:13.884Z,63.25
2023-05-14T12:34:44.844Z,63.79
2023-05-14T12:37:15.870Z,64.26
2023-05-14T12:39:48.606Z,64.64
2023-05-14T12:42:19.509Z,64.57
2023-05-14T12:44:50.409Z,63.83
2023-05-14T12:47:21.462Z,63.89
2023-05-14T12:49:52.474Z,63.87
2023-05-14T12:52:36.811Z,63.83
2023-05-14T12:55:09.149Z,64.16
2023-05-14T12:57:41.581Z,63.73
2023-05-14T13:00:14.412Z,62.89
2023-05-14T13:02:45.643Z,62.45
2023-05-14T13:05:16.697Z,62.43
2023-05-14T13:07:47.716Z,62.20
2023-05-14T13:10:21.257Z,62.26
2023-05-14T13:12:53.510Z,62.07
2023-05-14T13:15:24.788Z,62.16
2023-05-14T13:17:56.093Z,62.36
2023-05-14T13:20:28.584Z,62.29
2023-05-14T13:23:03.843Z,62.29
2023-05-14T13:25:34.766Z,62.46
2023-05-14T13:28:05.900Z,62.59
2023-05-14T13:30:36.820Z,62.71
2023-05-14T13:33:08.499Z,63.05
2023-05-14T13:35:39.337Z,63.44
2023-05-14T13:38:11.446Z,63.43
2023-05-14T13:40:42.761Z,63.61
2023-05-14T13:43:13.880Z,63.53
2023-05-14T13:45:44.716Z,63.48
2023-05-14T13:48:15.611Z,63.59
2023-05-14T13:50:47.183Z,63.43
2023-05-14T13:53:18.541Z,63.47
2023-05-14T13:55:49.498Z,63.39
2023-05-14T13:58:20.440Z,63.34
2023-05-14T14:00:51.442Z,63.23
2023-05-14T14:03:22.546Z,63.24
2023-05-14T14:05:54.779Z,63.48
2023-05-14T14:08:25.621Z,63.39
2023-05-14T14:10:59.501Z,63.37
2023-05-14T14:13:30.821Z,63.34
2023-05-14T14:16:02.344Z,63.33
2023-05-14T14:18:33.424Z,63.65
2023-05-14T14:21:04.161Z,63.45
2023-05-14T14:23:35.302Z,63.52
2023-05-14T14:26:06.951Z,63.70
2023-05-14T14:28:38.187Z,63.76
2023-05-14T14:31:09.520Z,63.79
2023-05-14T14:33:40.581Z,64.05
2023-05-14T14:36:11.916Z,64.00
2023-05-14T14:38:44.710Z,63.92
2023-05-14T14:41:15.788Z,63.92
2023-05-14T14:43:46.733Z,63.79
2023-05-14T14:46:17.829Z,64.06
2023-05-14T14:48:49.480Z,63.88
2023-05-14T14:51:21.146Z,64.41
2023-05-14T14:53:52.483Z,64.44
2023-05-14T14:56:23.960Z,64.36
2023-05-14T14:58:54.906Z,64.56
2023-05-14T15:01:26.012Z,64.78
2023-05-14T15:03:56.966Z,64.61
2023-05-14T15:06:27.887Z,64.22
2023-05-14T15:08:58.719Z,63.99
2023-05-14T15:11:29.827Z,63.58
2023-05-14T15:14:02.688Z,62.05
2023-05-14T15:16:33.580Z,60.45
2023-05-14T15:19:05.263Z,60.36
2023-05-14T15:21:36.646Z,60.85
2023-05-14T15:24:13.029Z,60.31
2023-05-14T15:26:53.272Z,60.14
2023-05-14T15:29:25.158Z,60.01
2023-05-14T15:31:56.131Z,59.71
2023-05-14T15:34:27.155Z,59.56
2023-05-14T15:36:57.989Z,59.33
2023-05-14T15:39:30.142Z,58.97
2023-05-14T15:42:01.194Z,58.63
2023-05-14T15:44:32.494Z,58.71
2023-05-14T15:47:02.964Z,59.08
2023-05-14T15:49:33.845Z,58.94
2023-05-14T15:52:05.732Z,59.07
2023-05-14T15:54:36.837Z,58.96
2023-05-14T15:57:07.444Z,59.23
2023-05-14T15:59:38.294Z,58.76
2023-05-14T16:02:09.419Z,59.35
2023-05-14T16:04:40.034Z,59.25
2023-05-14T16:07:15.073Z,58.43
2023-05-14T16:09:45.868Z,59.10
2023-05-14T16:12:17.216Z,59.08
2023-05-14T16:14:48.162Z,59.07
2023-05-14T16:17:19.073Z,58.79
2023-05-14T16:19:49.897Z,58.36
2023-05-14T16:22:20.951Z,58.69
2023-05-14T16:24:51.775Z,58.77
2023-05-14T16:27:22.857Z,58.74
2023-05-14T16:29:54.022Z,58.75
2023-05-14T16:32:25.874Z,58.90
2023-05-14T16:34:59.196Z,58.86
2023-05-14T16:37:30.474Z,58.84
2023-05-14T16:40:01.300Z,59.12
2023-05-14T16:42:32.057Z,59.32
2023-05-14T16:45:02.925Z,59.34
2023-05-14T16:47:34.108Z,59.47
2023-05-14T16:50:05.062Z,59.53
2023-05-14T16:52:36.272Z,59.61
2023-05-14T16:55:07.671Z,59.63
2023-05-14T16:57:38.608Z,59.87
2023-05-14T17:00:10.595Z,60.08
2023-05-14T17:02:41.905Z,60.36
2023-05-14T17:05:12.458Z,60.35
2023-05-14T17:07:44.108Z,60.48
2023-05-14T17:10:15.011Z,60.62
2023-05-14T17:12:46.126Z,60.70
2023-05-14T17:15:17.274Z,60.94
2023-05-14T17:17:48.428Z,60.80
2023-05-14T17:20:19.370Z,61.08
2023-05-14T17:22:51.654Z,61.14
2023-05-14T17:25:23.876Z,61.13
2023-05-14T17:27:56.059Z,61.22
2023-05-14T17:30:26.888Z,61.22
2023-05-14T17:32:58.052Z,61.30
2023-05-14T22:52:10.738Z,70.28
2023-05-14T22:54:41.609Z,70.03
2023-05-14T22:57:12.440Z,70.23
2023-05-14T22:59:45.021Z,70.33
2023-05-14T23:02:16.187Z,70.43
2023-05-14T23:04:46.765Z,70.01
2023-05-14T23:07:18.164Z,70.37
2023-05-14T23:09:49.075Z,70.14
2023-05-14T23:12:21.289Z,70.12
2023-05-14T23:14:52.253Z,69.84
2023-05-14T23:17:23.372Z,69.65
2023-05-14T23:19:53.993Z,69.53
2023-05-14T23:22:25.117Z,69.65
2023-05-14T23:24:56.618Z,69.59
2023-05-14T23:30:13.531Z,69.33
2023-05-14T23:32:44.442Z,69.32
2023-05-14T23:35:15.407Z,69.14
2023-05-14T23:37:51.616Z,69.38
2023-05-14T23:40:23.147Z,69.08
2023-05-14T23:42:54.135Z,69.25
2023-05-14T23:45:25.304Z,69.27
2023-05-14T23:47:59.537Z,69.19
2023-05-14T23:50:30.714Z,69.24
2023-05-14T23:53:01.272Z,69.25
2023-05-14T23:55:32.851Z,69.58
2023-05-14T23:58:03.906Z,69.55
